sensor_id;sensor_type;location;lat;lon;timestamp;temperature;humidity
9151;DHT22;4610;50.006;7.490;2023-03-01T00:00:54;-1.60;99.90
9151;DHT22;4610;50.006;7.490;2023-03-01T00:03:21;-1.50;99.90
9151;DHT22;4610;50.006;7.490;2023-03-01T00:05:48;-1.50;99.90
9151;DHT22;4610;50.006;7.490;2023-03-01T00:08:16;-1.60;99.90
9151;DHT22;4610;50.006;7.490;2023-03-01T00:10:43;-1.50;99.90
9151;DHT22;4610;50.006;7.490;2023-03-01T00:13:09;-1.40;99.90
9151;DHT22;4610;50.006;7.490;2023-03-01T00:15:38;-1.40;99.90
9151;DHT22;4610;50.006;7.490;2023-03-01T00:18:07;-1.30;99.90
9151;DHT22;4610;50.006;7.490;2023-03-01T00:20:34;-1.30;99.90
9151;DHT22;4610;50.006;7.490;2023-03-01T00:23:01;-1.30;99.90
9151;DHT22;4610;50.006;7.490;2023-03-01T00:25:29;-1.20;99.90
9151;DHT22;4610;50.006;7.490;2023-03-01T00:27:56;-1.20;99.90
9151;DHT22;4610;50.006;7.490;2023-03-01T00:30:22;-1.20;99.90
9151;DHT22;4610;50.006;7.490;2023-03-01T00:32:49;-1.10;99.90
9151;DHT22;4610;50.006;7.490;2023-03-01T00:35:16;-1.10;99.90
9151;DHT22;4610;50.006;7.490;2023-03-01T00:37:43;-1.20;99.90
9151;DHT22;4610;50.006;7.490;2023-03-01T00:40:10;-1.20;99.90
9151;DHT22;4610;50.006;7.490;2023-03-01T00:42:39;-1.20;99.90
9151;DHT22;4610;50.006;7.490;2023-03-01T00:45:07;-1.30;99.90
9151;DHT22;4610;50.006;7.490;2023-03-01T00:47:34;-1.30;99.90
9151;DHT22;4610;50.006;7.490;2023-03-01T00:50:01;-1.30;99.90
9151;DHT22;4610;50.006;7.490;2023-03-01T00:52:28;-1.20;99.90
9151;DHT22;4610;50.006;7.490;2023-03-01T00:54:54;-1.20;99.90
9151;DHT22;4610;50.006;7.490;2023-03-01T00:57:23;-1.20;99.90
9151;DHT22;4610;50.006;7.490;2023-03-01T00:59:51;-1.20;99.90
9151;DHT22;4610;50.006;7.490;2023-03-01T01:02:18;-1.20;99.90
9151;DHT22;4610;50.006;7.490;2023-03-01T01:04:46;-1.20;99.90
9151;DHT22;4610;50.006;7.490;2023-03-01T01:07:13;-1.20;99.90
9151;DHT22;4610;50.006;7.490;2023-03-01T01:09:40;-1.20;99.90
9151;DHT22;4610;50.006;7.490;2023-03-01T01:12:07;-1.30;99.90
9151;DHT22;4610;50.006;7.490;2023-03-01T01:14:33;-1.30;99.90
9151;DHT22;4610;50.006;7.490;2023-03-01T01:17:02;-1.30;99.90
9151;DHT22;4610;50.006;7.490;2023-03-01T01:19:28;-1.40;99.90
9151;DHT22;4610;50.006;7.490;2023-03-01T01:21:55;-1.40;99.90
9151;DHT22;4610;50.006;7.490;2023-03-01T01:24:22;-1.50;99.90
9151;DHT22;4610;50.006;7.490;2023-03-01T01:26:49;-1.60;99.90
9151;DHT22;4610;50.006;7.490;2023-03-01T01:29:16;-1.80;99.90
9151;DHT22;4610;50.006;7.490;2023-03-01T01:31:43;-1.80;99.90
9151;DHT22;4610;50.006;7.490;2023-03-01T01:34:15;-1.70;99.90
9151;DHT22;4610;50.006;7.490;2023-03-01T01:36:42;-1.70;99.90
9151;DHT22;4610;50.006;7.490;2023-03-01T01:39:10;-1.70;99.90
9151;DHT22;4610;50.006;7.490;2023-03-01T01:41:39;-1.70;99.90
9151;DHT22;4610;50.006;7.490;2023-03-01T01:44:20;-1.60;99.90
9151;DHT22;4610;50.006;7.490;2023-03-01T01:46:50;-1.60;99.90
9151;DHT22;4610;50.006;7.490;2023-03-01T01:49:24;-1.60;99.90
9151;DHT22;4610;50.006;7.490;2023-03-01T01:51:56;-1.50;99.90
9151;DHT22;4610;50.006;7.490;2023-03-01T01:54:26;-1.50;99.90
9151;DHT22;4610;50.006;7.490;2023-03-01T01:56:58;-1.60;99.90
9151;DHT22;4610;50.006;7.490;2023-03-01T01:59:27;-1.60;99.90
9151;DHT22;4610;50.006;7.490;2023-03-01T02:01:55;-1.50;99.90
9151;DHT22;4610;50.006;7.490;2023-03-01T02:04:23;-1.50;99.90
9151;DHT22;4610;50.006;7.490;2023-03-01T02:06:55;-1.50;99.90
9151;DHT22;4610;50.006;7.490;2023-03-01T02:09:24;-1.60;99.90
9151;DHT22;4610;50.006;7.490;2023-03-01T02:11:52;-1.60;99.90
9151;DHT22;4610;50.006;7.490;2023-03-01T02:14:19;-1.70;99.90
9151;DHT22;4610;50.006;7.490;2023-03-01T02:16:46;-1.80;99.90
9151;DHT22;4610;50.006;7.490;2023-03-01T02:19:22;-1.90;99.90
9151;DHT22;4610;50.006;7.490;2023-03-01T02:22:02;-1.90;99.90
9151;DHT22;4610;50.006;7.490;2023-03-01T02:24:34;-2.00;99.90
9151;DHT22;4610;50.006;7.490;2023-03-01T02:27:04;-2.10;99.90
9151;DHT22;4610;50.006;7.490;2023-03-01T02:29:32;-2.10;99.90
9151;DHT22;4610;50.006;7.490;2023-03-01T02:32:00;-2.20;99.90
9151;DHT22;4610;50.006;7.490;2023-03-01T02:34:28;-2.20;99.90
9151;DHT22;4610;50.006;7.490;2023-03-01T02:36:58;-2.10;99.90
9151;DHT22;4610;50.006;7.490;2023-03-01T02:39:28;-2.10;99.90
9151;DHT22;4610;50.006;7.490;2023-03-01T02:41:56;-2.10;99.90
9151;DHT22;4610;50.006;7.490;2023-03-01T02:44:24;-2.00;99.90
9151;DHT22;4610;50.006;7.490;2023-03-01T02:46:55;-2.00;99.90
9151;DHT22;4610;50.006;7.490;2023-03-01T02:49:24;-2.00;99.90
9151;DHT22;4610;50.006;7.490;2023-03-01T02:55:00;-2.00;99.90
9151;DHT22;4610;50.006;7.490;2023-03-01T02:57:28;-1.90;99.90
9151;DHT22;4610;50.006;7.490;2023-03-01T02:59:58;-1.80;99.90
9151;DHT22;4610;50.006;7.490;2023-03-01T03:02:29;-1.90;99.90
9151;DHT22;4610;50.006;7.490;2023-03-01T03:05:04;-1.90;99.90
9151;DHT22;4610;50.006;7.490;2023-03-01T03:07:34;-1.80;99.90
9151;DHT22;4610;50.006;7.490;2023-03-01T03:10:01;-1.70;99.90
9151;DHT22;4610;50.006;7.490;2023-03-01T03:12:28;-1.70;99.90
9151;DHT22;4610;50.006;7.490;2023-03-01T03:14:55;-1.80;99.90
9151;DHT22;4610;50.006;7.490;2023-03-01T03:17:21;-1.80;99.90
9151;DHT22;4610;50.006;7.490;2023-03-01T03:19:49;-1.80;99.90
9151;DHT22;4610;50.006;7.490;2023-03-01T03:22:16;-1.90;99.90
9151;DHT22;4610;50.006;7.490;2023-03-01T03:24:43;-1.80;99.90
9151;DHT22;4610;50.006;7.490;2023-03-01T03:27:10;-1.80;99.90
9151;DHT22;4610;50.006;7.490;2023-03-01T03:29:37;-1.70;99.90
9151;DHT22;4610;50.006;7.490;2023-03-01T03:32:03;-1.60;99.90
9151;DHT22;4610;50.006;7.490;2023-03-01T03:34:30;-1.50;99.90
9151;DHT22;4610;50.006;7.490;2023-03-01T03:36:58;-1.40;99.90
9151;DHT22;4610;50.006;7.490;2023-03-01T03:39:26;-1.40;99.90
9151;DHT22;4610;50.006;7.490;2023-03-01T03:41:53;-1.40;99.90
9151;DHT22;4610;50.006;7.490;2023-03-01T03:44:20;-1.40;99.90
9151;DHT22;4610;50.006;7.490;2023-03-01T03:46:47;-1.40;99.90
9151;DHT22;4610;50.006;7.490;2023-03-01T03:49:14;-1.40;99.90
9151;DHT22;4610;50.006;7.490;2023-03-01T03:51:40;-1.40;99.90
9151;DHT22;4610;50.006;7.490;2023-03-01T03:54:09;-1.50;99.90
9151;DHT22;4610;50.006;7.490;2023-03-01T03:56:36;-1.50;99.90
9151;DHT22;4610;50.006;7.490;2023-03-01T03:59:03;-1.60;99.90
9151;DHT22;4610;50.006;7.490;2023-03-01T04:01:31;-1.60;99.90
9151;DHT22;4610;50.006;7.490;2023-03-01T04:03:58;-1.60;99.90
9151;DHT22;4610;50.006;7.490;2023-03-01T04:06:29;-1.60;99.90
9151;DHT22;4610;50.006;7.490;2023-03-01T04:08:56;-1.60;99.90
9151;DHT22;4610;50.006;7.490;2023-03-01T04:11:26;-1.50;99.90
9151;DHT22;4610;50.006;7.490;2023-03-01T04:13:56;-1.50;99.90
9151;DHT22;4610;50.006;7.490;2023-03-01T04:16:24;-1.40;99.90
9151;DHT22;4610;50.006;7.490;2023-03-01T04:18:50;-1.40;99.90
9151;DHT22;4610;50.006;7.490;2023-03-01T04:21:17;-1.40;99.90
9151;DHT22;4610;50.006;7.490;2023-03-01T04:23:45;-1.30;99.90
9151;DHT22;4610;50.006;7.490;2023-03-01T04:26:12;-1.30;99.90
9151;DHT22;4610;50.006;7.490;2023-03-01T04:28:41;-1.30;99.90
9151;DHT22;4610;50.006;7.490;2023-03-01T04:31:12;-1.30;99.90
9151;DHT22;4610;50.006;7.490;2023-03-01T04:33:40;-1.50;99.90
9151;DHT22;4610;50.006;7.490;2023-03-01T04:36:08;-1.50;99.90
9151;DHT22;4610;50.006;7.490;2023-03-01T04:38:36;-1.60;99.90
9151;DHT22;4610;50.006;7.490;2023-03-01T04:41:04;-1.60;99.90
9151;DHT22;4610;50.006;7.490;2023-03-01T04:43:31;-1.70;99.90
9151;DHT22;4610;50.006;7.490;2023-03-01T04:46:06;-1.70;99.90
9151;DHT22;4610;50.006;7.490;2023-03-01T04:48:34;-1.60;99.90
9151;DHT22;4610;50.006;7.490;2023-03-01T04:51:02;-1.60;99.90
9151;DHT22;4610;50.006;7.490;2023-03-01T04:53:29;-1.60;99.90
9151;DHT22;4610;50.006;7.490;2023-03-01T04:55:56;-1.50;99.90
9151;DHT22;4610;50.006;7.490;2023-03-01T04:58:24;-1.50;99.90
9151;DHT22;4610;50.006;7.490;2023-03-01T05:00:51;-1.60;99.90
9151;DHT22;4610;50.006;7.490;2023-03-01T05:03:20;-1.60;99.90
9151;DHT22;4610;50.006;7.490;2023-03-01T05:05:49;-1.70;99.90
9151;DHT22;4610;50.006;7.490;2023-03-01T05:08:17;-1.70;99.90
9151;DHT22;4610;50.006;7.490;2023-03-01T05:10:48;-1.80;99.90
9151;DHT22;4610;50.006;7.490;2023-03-01T05:13:16;-1.80;99.90
9151;DHT22;4610;50.006;7.490;2023-03-01T05:15:46;-1.90;99.90
9151;DHT22;4610;50.006;7.490;2023-03-01T05:18:13;-1.90;99.90
9151;DHT22;4610;50.006;7.490;2023-03-01T05:20:41;-2.00;99.90
9151;DHT22;4610;50.006;7.490;2023-03-01T05:23:08;-1.90;99.90
9151;DHT22;4610;50.006;7.490;2023-03-01T05:25:35;-1.90;99.90
9151;DHT22;4610;50.006;7.490;2023-03-01T05:28:06;-1.90;99.90
9151;DHT22;4610;50.006;7.490;2023-03-01T05:30:35;-2.00;99.90
9151;DHT22;4610;50.006;7.490;2023-03-01T05:33:02;-2.10;99.90
9151;DHT22;4610;50.006;7.490;2023-03-01T05:35:29;-2.20;99.90
9151;DHT22;4610;50.006;7.490;2023-03-01T05:37:59;-2.20;99.90
9151;DHT22;4610;50.006;7.490;2023-03-01T05:40:26;-2.10;99.90
9151;DHT22;4610;50.006;7.490;2023-03-01T05:42:54;-2.10;99.90
9151;DHT22;4610;50.006;7.490;2023-03-01T05:45:23;-2.20;99.90
9151;DHT22;4610;50.006;7.490;2023-03-01T05:47:51;-2.40;99.90
9151;DHT22;4610;50.006;7.490;2023-03-01T05:50:21;-2.50;99.90
9151;DHT22;4610;50.006;7.490;2023-03-01T05:52:50;-2.60;99.90
9151;DHT22;4610;50.006;7.490;2023-03-01T05:55:20;-2.70;99.90
9151;DHT22;4610;50.006;7.490;2023-03-01T05:57:48;-2.70;99.90
9151;DHT22;4610;50.006;7.490;2023-03-01T06:00:16;-2.60;99.90
9151;DHT22;4610;50.006;7.490;2023-03-01T06:02:44;-2.60;99.90
9151;DHT22;4610;50.006;7.490;2023-03-01T06:05:12;-2.50;99.90
9151;DHT22;4610;50.006;7.490;2023-03-01T06:07:39;-2.50;99.90
9151;DHT22;4610;50.006;7.490;2023-03-01T06:10:07;-2.50;99.90
9151;DHT22;4610;50.006;7.490;2023-03-01T06:12:37;-2.60;99.90
9151;DHT22;4610;50.006;7.490;2023-03-01T06:15:05;-2.60;99.90
9151;DHT22;4610;50.006;7.490;2023-03-01T06:17:33;-2.60;99.90
9151;DHT22;4610;50.006;7.490;2023-03-01T06:20:03;-2.70;99.90
9151;DHT22;4610;50.006;7.490;2023-03-01T06:22:30;-2.70;99.90
9151;DHT22;4610;50.006;7.490;2023-03-01T06:24:57;-2.80;99.90
9151;DHT22;4610;50.006;7.490;2023-03-01T06:27:23;-2.80;99.90
9151;DHT22;4610;50.006;7.490;2023-03-01T06:29:51;-2.80;99.90
9151;DHT22;4610;50.006;7.490;2023-03-01T06:32:18;-2.80;99.90
9151;DHT22;4610;50.006;7.490;2023-03-01T06:34:45;-2.80;99.90
9151;DHT22;4610;50.006;7.490;2023-03-01T06:37:12;-2.70;99.90
9151;DHT22;4610;50.006;7.490;2023-03-01T06:39:39;-2.80;99.90
9151;DHT22;4610;50.006;7.490;2023-03-01T06:42:07;-2.70;99.90
9151;DHT22;4610;50.006;7.490;2023-03-01T06:44:35;-2.80;99.90
9151;DHT22;4610;50.006;7.490;2023-03-01T06:47:04;-2.70;99.90
9151;DHT22;4610;50.006;7.490;2023-03-01T06:49:30;-2.10;99.90
9151;DHT22;4610;50.006;7.490;2023-03-01T06:51:57;0.30;99.90
9151;DHT22;4610;50.006;7.490;2023-03-01T06:54:24;0.00;99.90
9151;DHT22;4610;50.006;7.490;2023-03-01T06:56:51;-0.50;99.90
9151;DHT22;4610;50.006;7.490;2023-03-01T06:59:18;-0.90;99.90
9151;DHT22;4610;50.006;7.490;2023-03-01T07:01:45;-1.20;99.90
9151;DHT22;4610;50.006;7.490;2023-03-01T07:04:13;-1.40;99.90
9151;DHT22;4610;50.006;7.490;2023-03-01T07:06:40;-1.60;99.90
9151;DHT22;4610;50.006;7.490;2023-03-01T07:09:07;-1.60;99.90
9151;DHT22;4610;50.006;7.490;2023-03-01T07:11:34;-1.60;99.90
9151;DHT22;4610;50.006;7.490;2023-03-01T07:14:00;-1.60;99.90
9151;DHT22;4610;50.006;7.490;2023-03-01T07:16:27;-1.60;99.90
9151;DHT22;4610;50.006;7.490;2023-03-01T07:18:54;-1.50;99.90
9151;DHT22;4610;50.006;7.490;2023-03-01T07:21:22;-1.60;99.90
9151;DHT22;4610;50.006;7.490;2023-03-01T07:23:49;-1.60;99.90
9151;DHT22;4610;50.006;7.490;2023-03-01T07:26:16;-1.40;99.90
9151;DHT22;4610;50.006;7.490;2023-03-01T07:28:42;-1.30;99.90
9151;DHT22;4610;50.006;7.490;2023-03-01T07:31:09;-1.30;99.90
9151;DHT22;4610;50.006;7.490;2023-03-01T07:33:36;-1.00;99.90
9151;DHT22;4610;50.006;7.490;2023-03-01T07:36:04;-0.80;99.90
9151;DHT22;4610;50.006;7.490;2023-03-01T07:38:33;-0.70;99.90
9151;DHT22;4610;50.006;7.490;2023-03-01T07:41:00;-0.40;99.90
9151;DHT22;4610;50.006;7.490;2023-03-01T07:43:29;-0.20;99.90
9151;DHT22;4610;50.006;7.490;2023-03-01T07:45:58;0.10;99.90
9151;DHT22;4610;50.006;7.490;2023-03-01T07:48:25;0.30;99.90
9151;DHT22;4610;50.006;7.490;2023-03-01T07:50:52;0.60;99.90
9151;DHT22;4610;50.006;7.490;2023-03-01T07:53:19;1.00;99.90
9151;DHT22;4610;50.006;7.490;2023-03-01T07:55:47;1.40;99.90
9151;DHT22;4610;50.006;7.490;2023-03-01T07:58:14;2.00;99.90
9151;DHT22;4610;50.006;7.490;2023-03-01T08:00:41;2.50;99.90
9151;DHT22;4610;50.006;7.490;2023-03-01T08:03:07;3.20;99.90
9151;DHT22;4610;50.006;7.490;2023-03-01T08:05:34;3.90;99.90
9151;DHT22;4610;50.006;7.490;2023-03-01T08:08:01;5.00;99.90
9151;DHT22;4610;50.006;7.490;2023-03-01T08:10:28;6.10;99.90
9151;DHT22;4610;50.006;7.490;2023-03-01T08:12:56;7.30;99.90
9151;DHT22;4610;50.006;7.490;2023-03-01T08:15:22;8.40;99.90
9151;DHT22;4610;50.006;7.490;2023-03-01T08:17:49;9.00;99.10
9151;DHT22;4610;50.006;7.490;2023-03-01T08:20:16;9.40;98.30
9151;DHT22;4610;50.006;7.490;2023-03-01T08:22:43;9.80;98.20
9151;DHT22;4610;50.006;7.490;2023-03-01T08:25:10;9.60;97.80
9151;DHT22;4610;50.006;7.490;2023-03-01T08:27:37;9.60;97.50
9151;DHT22;4610;50.006;7.490;2023-03-01T08:30:07;9.50;97.40
9151;DHT22;4610;50.006;7.490;2023-03-01T08:32:36;9.70;97.30
9151;DHT22;4610;50.006;7.490;2023-03-01T08:35:04;9.80;97.20
9151;DHT22;4610;50.006;7.490;2023-03-01T08:37:31;10.00;96.40
9151;DHT22;4610;50.006;7.490;2023-03-01T08:39:58;10.10;96.80
9151;DHT22;4610;50.006;7.490;2023-03-01T08:42:25;10.40;96.80
9151;DHT22;4610;50.006;7.490;2023-03-01T08:44:52;10.30;98.10
9151;DHT22;4610;50.006;7.490;2023-03-01T08:47:20;10.40;97.50
9151;DHT22;4610;50.006;7.490;2023-03-01T08:49:49;10.40;97.20
9151;DHT22;4610;50.006;7.490;2023-03-01T08:52:16;10.20;97.10
9151;DHT22;4610;50.006;7.490;2023-03-01T08:54:42;10.50;99.90
9151;DHT22;4610;50.006;7.490;2023-03-01T08:57:09;10.90;96.00
9151;DHT22;4610;50.006;7.490;2023-03-01T08:59:37;10.60;96.00
9151;DHT22;4610;50.006;7.490;2023-03-01T09:02:03;11.00;94.80
9151;DHT22;4610;50.006;7.490;2023-03-01T09:04:32;10.90;94.00
9151;DHT22;4610;50.006;7.490;2023-03-01T09:06:59;10.70;94.10
9151;DHT22;4610;50.006;7.490;2023-03-01T09:09:25;11.00;93.10
9151;DHT22;4610;50.006;7.490;2023-03-01T09:11:52;11.00;93.70
9151;DHT22;4610;50.006;7.490;2023-03-01T09:14:19;10.80;93.20
9151;DHT22;4610;50.006;7.490;2023-03-01T09:16:46;11.00;93.20
9151;DHT22;4610;50.006;7.490;2023-03-01T09:19:13;10.70;92.90
9151;DHT22;4610;50.006;7.490;2023-03-01T09:21:41;10.60;93.10
9151;DHT22;4610;50.006;7.490;2023-03-01T09:24:20;10.70;92.90
9151;DHT22;4610;50.006;7.490;2023-03-01T09:26:47;10.70;93.20
9151;DHT22;4610;50.006;7.490;2023-03-01T09:29:14;10.70;92.40
9151;DHT22;4610;50.006;7.490;2023-03-01T09:31:41;10.50;92.40
9151;DHT22;4610;50.006;7.490;2023-03-01T09:34:08;10.20;92.90
9151;DHT22;4610;50.006;7.490;2023-03-01T09:36:35;10.00;92.30
9151;DHT22;4610;50.006;7.490;2023-03-01T09:39:04;9.90;93.20
9151;DHT22;4610;50.006;7.490;2023-03-01T09:41:49;9.80;93.40
9151;DHT22;4610;50.006;7.490;2023-03-01T09:44:24;9.90;93.20
9151;DHT22;4610;50.006;7.490;2023-03-01T09:46:53;9.90;92.80
9151;DHT22;4610;50.006;7.490;2023-03-01T09:49:22;10.00;92.90
9151;DHT22;4610;50.006;7.490;2023-03-01T09:51:57;10.10;93.00
9151;DHT22;4610;50.006;7.490;2023-03-01T09:54:25;10.10;92.60
9151;DHT22;4610;50.006;7.490;2023-03-01T09:57:06;10.10;93.30
9151;DHT22;4610;50.006;7.490;2023-03-01T09:59:45;10.10;92.40
9151;DHT22;4610;50.006;7.490;2023-03-01T10:02:23;10.00;93.00
9151;DHT22;4610;50.006;7.490;2023-03-01T10:04:56;9.80;93.50
9151;DHT22;4610;50.006;7.490;2023-03-01T10:07:31;9.50;93.70
9151;DHT22;4610;50.006;7.490;2023-03-01T10:10:05;9.70;94.00
9151;DHT22;4610;50.006;7.490;2023-03-01T10:12:36;9.60;93.60
9151;DHT22;4610;50.006;7.490;2023-03-01T10:15:08;9.70;94.40
9151;DHT22;4610;50.006;7.490;2023-03-01T10:17:41;9.80;94.20
9151;DHT22;4610;50.006;7.490;2023-03-01T10:20:18;9.80;94.10
9151;DHT22;4610;50.006;7.490;2023-03-01T10:22:45;9.40;93.90
9151;DHT22;4610;50.006;7.490;2023-03-01T10:25:35;9.40;94.30
9151;DHT22;4610;50.006;7.490;2023-03-01T10:28:12;9.70;94.90
9151;DHT22;4610;50.006;7.490;2023-03-01T10:30:40;9.60;94.40
9151;DHT22;4610;50.006;7.490;2023-03-01T10:33:15;9.10;94.40
9151;DHT22;4610;50.006;7.490;2023-03-01T10:35:43;8.70;96.40
9151;DHT22;4610;50.006;7.490;2023-03-01T10:38:11;8.80;97.30
9151;DHT22;4610;50.006;7.490;2023-03-01T10:40:52;9.10;97.40
9151;DHT22;4610;50.006;7.490;2023-03-01T10:43:21;9.10;97.50
9151;DHT22;4610;50.006;7.490;2023-03-01T10:45:48;8.90;96.80
9151;DHT22;4610;50.006;7.490;2023-03-01T10:48:16;8.60;96.70
9151;DHT22;4610;50.006;7.490;2023-03-01T10:50:46;8.30;97.70
9151;DHT22;4610;50.006;7.490;2023-03-01T10:53:26;8.60;98.30
9151;DHT22;4610;50.006;7.490;2023-03-01T10:56:04;8.40;97.50
9151;DHT22;4610;50.006;7.490;2023-03-01T10:58:33;8.60;97.70
9151;DHT22;4610;50.006;7.490;2023-03-01T11:01:02;8.40;97.80
9151;DHT22;4610;50.006;7.490;2023-03-01T11:03:31;8.40;97.50
9151;DHT22;4610;50.006;7.490;2023-03-01T11:06:05;8.30;98.00
9151;DHT22;4610;50.006;7.490;2023-03-01T11:08:38;8.20;96.30
9151;DHT22;4610;50.006;7.490;2023-03-01T11:11:23;8.10;97.60
9151;DHT22;4610;50.006;7.490;2023-03-01T11:13:54;7.90;96.80
9151;DHT22;4610;50.006;7.490;2023-03-01T11:16:30;7.90;98.00
9151;DHT22;4610;50.006;7.490;2023-03-01T11:19:01;7.80;98.10
9151;DHT22;4610;50.006;7.490;2023-03-01T11:21:30;7.30;95.10
9151;DHT22;4610;50.006;7.490;2023-03-01T11:24:00;7.40;99.90
9151;DHT22;4610;50.006;7.490;2023-03-01T11:26:31;8.40;96.70
9151;DHT22;4610;50.006;7.490;2023-03-01T11:29:05;8.20;96.30
9151;DHT22;4610;50.006;7.490;2023-03-01T11:31:34;8.00;97.20
9151;DHT22;4610;50.006;7.490;2023-03-01T11:34:09;7.80;96.90
9151;DHT22;4610;50.006;7.490;2023-03-01T11:36:42;7.70;96.90
9151;DHT22;4610;50.006;7.490;2023-03-01T11:39:20;7.60;96.50
9151;DHT22;4610;50.006;7.490;2023-03-01T11:42:02;7.20;96.60
9151;DHT22;4610;50.006;7.490;2023-03-01T11:44:33;7.00;97.20
9151;DHT22;4610;50.006;7.490;2023-03-01T11:47:12;6.80;97.70
9151;DHT22;4610;50.006;7.490;2023-03-01T11:50:07;6.60;97.90
9151;DHT22;4610;50.006;7.490;2023-03-01T11:52:42;6.70;97.90
9151;DHT22;4610;50.006;7.490;2023-03-01T11:55:30;6.40;97.60
9151;DHT22;4610;50.006;7.490;2023-03-01T11:58:20;6.20;98.40
9151;DHT22;4610;50.006;7.490;2023-03-01T12:01:07;6.40;98.30
9151;DHT22;4610;50.006;7.490;2023-03-01T12:03:46;6.40;98.90
9151;DHT22;4610;50.006;7.490;2023-03-01T12:06:25;6.50;98.80
9151;DHT22;4610;50.006;7.490;2023-03-01T12:09:02;6.70;98.90
9151;DHT22;4610;50.006;7.490;2023-03-01T12:11:41;6.80;98.00
9151;DHT22;4610;50.006;7.490;2023-03-01T12:14:41;6.60;98.00
9151;DHT22;4610;50.006;7.490;2023-03-01T12:20:26;6.50;98.10
9151;DHT22;4610;50.006;7.490;2023-03-01T12:23:09;6.40;98.70
9151;DHT22;4610;50.006;7.490;2023-03-01T12:25:40;6.40;98.70
9151;DHT22;4610;50.006;7.490;2023-03-01T12:28:23;6.40;98.70
9151;DHT22;4610;50.006;7.490;2023-03-01T12:31:07;6.30;98.40
9151;DHT22;4610;50.006;7.490;2023-03-01T12:33:45;6.40;99.30
9151;DHT22;4610;50.006;7.490;2023-03-01T12:36:26;6.40;98.80
9151;DHT22;4610;50.006;7.490;2023-03-01T12:39:07;6.30;98.70
9151;DHT22;4610;50.006;7.490;2023-03-01T12:41:48;6.40;99.10
9151;DHT22;4610;50.006;7.490;2023-03-01T12:44:30;6.50;98.70
9151;DHT22;4610;50.006;7.490;2023-03-01T12:47:11;6.40;98.50
9151;DHT22;4610;50.006;7.490;2023-03-01T12:49:44;6.40;98.40
9151;DHT22;4610;50.006;7.490;2023-03-01T12:52:14;6.30;98.40
9151;DHT22;4610;50.006;7.490;2023-03-01T12:54:41;6.20;99.20
9151;DHT22;4610;50.006;7.490;2023-03-01T12:57:12;6.20;99.20
9151;DHT22;4610;50.006;7.490;2023-03-01T12:59:47;6.30;99.00
9151;DHT22;4610;50.006;7.490;2023-03-01T13:02:24;6.30;99.80
9151;DHT22;4610;50.006;7.490;2023-03-01T13:05:00;6.40;99.10
9151;DHT22;4610;50.006;7.490;2023-03-01T13:07:35;6.40;99.20
9151;DHT22;4610;50.006;7.490;2023-03-01T13:10:20;6.50;98.60
9151;DHT22;4610;50.006;7.490;2023-03-01T13:13:00;6.30;98.80
9151;DHT22;4610;50.006;7.490;2023-03-01T13:15:30;6.30;99.40
9151;DHT22;4610;50.006;7.490;2023-03-01T13:18:01;6.30;99.10
9151;DHT22;4610;50.006;7.490;2023-03-01T13:20:32;6.20;99.60
9151;DHT22;4610;50.006;7.490;2023-03-01T13:23:12;6.10;99.30
9151;DHT22;4610;50.006;7.490;2023-03-01T13:26:14;6.00;98.80
9151;DHT22;4610;50.006;7.490;2023-03-01T13:28:50;5.80;99.50
9151;DHT22;4610;50.006;7.490;2023-03-01T13:34:51;5.90;99.30
9151;DHT22;4610;50.006;7.490;2023-03-01T13:37:20;5.90;99.90
9151;DHT22;4610;50.006;7.490;2023-03-01T13:39:48;5.80;99.10
9151;DHT22;4610;50.006;7.490;2023-03-01T13:42:43;5.80;98.90
9151;DHT22;4610;50.006;7.490;2023-03-01T13:45:21;5.90;98.40
9151;DHT22;4610;50.006;7.490;2023-03-01T13:47:53;5.90;99.30
9151;DHT22;4610;50.006;7.490;2023-03-01T13:50:27;5.80;99.10
9151;DHT22;4610;50.006;7.490;2023-03-01T13:52:56;5.80;99.30
9151;DHT22;4610;50.006;7.490;2023-03-01T13:55:32;5.80;98.90
9151;DHT22;4610;50.006;7.490;2023-03-01T13:58:04;5.70;99.00
9151;DHT22;4610;50.006;7.490;2023-03-01T14:00:34;5.80;98.40
9151;DHT22;4610;50.006;7.490;2023-03-01T14:03:14;5.80;98.40
9151;DHT22;4610;50.006;7.490;2023-03-01T14:05:50;5.90;99.50
9151;DHT22;4610;50.006;7.490;2023-03-01T14:08:24;5.90;98.80
9151;DHT22;4610;50.006;7.490;2023-03-01T14:11:05;6.00;99.60
9151;DHT22;4610;50.006;7.490;2023-03-01T14:13:48;6.10;98.90
9151;DHT22;4610;50.006;7.490;2023-03-01T14:16:25;6.10;98.90
9151;DHT22;4610;50.006;7.490;2023-03-01T14:19:04;6.10;98.00
9151;DHT22;4610;50.006;7.490;2023-03-01T14:21:34;6.00;98.20
9151;DHT22;4610;50.006;7.490;2023-03-01T14:24:02;6.00;98.10
9151;DHT22;4610;50.006;7.490;2023-03-01T14:26:30;5.90;98.30
9151;DHT22;4610;50.006;7.490;2023-03-01T14:28:58;6.00;97.80
9151;DHT22;4610;50.006;7.490;2023-03-01T14:31:39;6.00;98.00
9151;DHT22;4610;50.006;7.490;2023-03-01T14:34:20;6.00;98.20
9151;DHT22;4610;50.006;7.490;2023-03-01T14:36:49;6.00;98.20
9151;DHT22;4610;50.006;7.490;2023-03-01T14:39:18;6.00;97.80
9151;DHT22;4610;50.006;7.490;2023-03-01T14:41:45;6.00;97.60
9151;DHT22;4610;50.006;7.490;2023-03-01T14:44:16;6.00;97.80
9151;DHT22;4610;50.006;7.490;2023-03-01T14:46:46;6.00;97.70
9151;DHT22;4610;50.006;7.490;2023-03-01T14:49:15;6.10;97.40
9151;DHT22;4610;50.006;7.490;2023-03-01T14:51:50;6.00;96.70
9151;DHT22;4610;50.006;7.490;2023-03-01T14:54:23;6.00;96.60
9151;DHT22;4610;50.006;7.490;2023-03-01T14:56:52;6.00;97.20
9151;DHT22;4610;50.006;7.490;2023-03-01T14:59:22;6.00;96.30
9151;DHT22;4610;50.006;7.490;2023-03-01T15:01:49;5.90;96.70
9151;DHT22;4610;50.006;7.490;2023-03-01T15:04:18;5.90;96.70
9151;DHT22;4610;50.006;7.490;2023-03-01T15:06:46;5.90;96.70
9151;DHT22;4610;50.006;7.490;2023-03-01T15:09:16;6.90;99.90
9151;DHT22;4610;50.006;7.490;2023-03-01T15:11:44;6.80;97.30
9151;DHT22;4610;50.006;7.490;2023-03-01T15:14:28;6.60;97.60
9151;DHT22;4610;50.006;7.490;2023-03-01T15:16:56;6.30;97.10
9151;DHT22;4610;50.006;7.490;2023-03-01T15:19:24;6.10;97.30
9151;DHT22;4610;50.006;7.490;2023-03-01T15:21:54;6.00;97.30
9151;DHT22;4610;50.006;7.490;2023-03-01T15:24:25;5.90;97.20
9151;DHT22;4610;50.006;7.490;2023-03-01T15:26:56;5.80;97.00
9151;DHT22;4610;50.006;7.490;2023-03-01T15:29:25;5.70;96.70
9151;DHT22;4610;50.006;7.490;2023-03-01T15:31:56;5.70;97.00
9151;DHT22;4610;50.006;7.490;2023-03-01T15:34:25;5.70;96.80
9151;DHT22;4610;50.006;7.490;2023-03-01T15:36:53;5.60;97.00
9151;DHT22;4610;50.006;7.490;2023-03-01T15:39:37;5.50;97.30
9151;DHT22;4610;50.006;7.490;2023-03-01T15:42:06;5.50;97.60
9151;DHT22;4610;50.006;7.490;2023-03-01T15:44:35;5.50;97.20
9151;DHT22;4610;50.006;7.490;2023-03-01T15:47:22;5.40;96.60
9151;DHT22;4610;50.006;7.490;2023-03-01T15:49:52;5.40;97.50
9151;DHT22;4610;50.006;7.490;2023-03-01T15:52:23;5.40;97.00
9151;DHT22;4610;50.006;7.490;2023-03-01T15:54:59;5.40;96.90
9151;DHT22;4610;50.006;7.490;2023-03-01T15:57:26;5.40;96.80
9151;DHT22;4610;50.006;7.490;2023-03-01T15:59:53;5.40;97.40
9151;DHT22;4610;50.006;7.490;2023-03-01T16:02:20;5.30;96.70
9151;DHT22;4610;50.006;7.490;2023-03-01T16:04:47;5.20;97.60
9151;DHT22;4610;50.006;7.490;2023-03-01T16:07:14;5.20;97.60
9151;DHT22;4610;50.006;7.490;2023-03-01T16:09:41;5.20;97.40
9151;DHT22;4610;50.006;7.490;2023-03-01T16:12:14;5.30;97.40
9151;DHT22;4610;50.006;7.490;2023-03-01T16:14:41;5.30;97.50
9151;DHT22;4610;50.006;7.490;2023-03-01T16:17:08;5.30;98.00
9151;DHT22;4610;50.006;7.490;2023-03-01T16:19:35;5.20;98.20
9151;DHT22;4610;50.006;7.490;2023-03-01T16:22:02;5.20;97.80
9151;DHT22;4610;50.006;7.490;2023-03-01T16:24:29;5.10;98.00
9151;DHT22;4610;50.006;7.490;2023-03-01T16:26:56;5.00;98.10
9151;DHT22;4610;50.006;7.490;2023-03-01T16:29:24;4.90;98.20
9151;DHT22;4610;50.006;7.490;2023-03-01T16:31:51;4.80;98.70
9151;DHT22;4610;50.006;7.490;2023-03-01T16:34:18;4.70;99.00
9151;DHT22;4610;50.006;7.490;2023-03-01T16:36:47;4.70;98.90
9151;DHT22;4610;50.006;7.490;2023-03-01T16:39:14;4.50;99.00